Skip Navigation Links Skip Navigation Links

Current Weather

Sussex, N.J.

For information only: do not use for flight planning or navigation.
Latest weather
Observation time Thursday, November 21, 2019 4:53 PM EST
Local time Thursday, November 21, 2019 5:29 PM EST
Flight conditions Visual Meteorological Conditions
Winds
Wind speed calm
Visibility 10 mi.
Sky condition
Ceiling unlimited
Sky clear
Temperature 49°F
Dewpoint 32°F
Altimeter 30.08 in.Hg
Derived measurements
Relative humidity 52%
Wind chill 49°F
Density altitude -337 ft.
Sea-level pressure 30.09 in.Hg
Remarks
Fully automated report.
Automated weather observing station with precipitation discriminator.
METAR KFWN 212153Z AUTO 00000KT 10SM CLR 09/00 A3008 RMK AO2 SLP188 T00940000

Settings

Location code

InnerDrive.Weather 4.0.6770.0 Release CLR 4.0.30319.42000
Copyright ©2018 Inner Drive Technology. All rights reserved. Portions Copyright ©1986-2018 David Braverman.

Find weather

Site navigation


Skip Navigation Links

Place info

Page info

PayPal - The safer, easier way to pay online!

Return home.

Copyright ©2019 Inner Drive Technology. Purveyors of fine, hand-crafted computer software. Page printed 2019-11-21T22:29:55 UTC.